sensor_id;sensor_type;location;lat;lon;timestamp;P1;durP1;ratioP1;P2;durP2;ratioP2
66707;SDS011;53622;0.000;0.000;2024-01-15T00:00:24;6.72;;;6.13;;
66707;SDS011;53622;0.000;0.000;2024-01-15T00:02:52;6.13;;;5.63;;
66707;SDS011;53622;0.000;0.000;2024-01-15T00:05:21;6.95;;;6.25;;
66707;SDS011;53622;0.000;0.000;2024-01-15T00:07:49;7.13;;;6.43;;
66707;SDS011;53622;0.000;0.000;2024-01-15T00:10:17;7.35;;;6.65;;
66707;SDS011;53622;0.000;0.000;2024-01-15T00:12:46;6.65;;;6.05;;
66707;SDS011;53622;0.000;0.000;2024-01-15T00:15:15;6.60;;;5.90;;
66707;SDS011;53622;0.000;0.000;2024-01-15T00:17:45;6.45;;;5.82;;
66707;SDS011;53622;0.000;0.000;2024-01-15T00:20:14;7.20;;;6.53;;
66707;SDS011;53622;0.000;0.000;2024-01-15T00:22:43;6.13;;;5.60;;
66707;SDS011;53622;0.000;0.000;2024-01-15T00:25:11;6.72;;;6.13;;
66707;SDS011;53622;0.000;0.000;2024-01-15T00:27:40;6.60;;;6.00;;
66707;SDS011;53622;0.000;0.000;2024-01-15T00:30:09;6.35;;;5.75;;
66707;SDS011;53622;0.000;0.000;2024-01-15T00:32:39;6.18;;;5.55;;
66707;SDS011;53622;0.000;0.000;2024-01-15T00:35:09;5.97;;;5.45;;
66707;SDS011;53622;0.000;0.000;2024-01-15T00:37:38;6.80;;;6.20;;
66707;SDS011;53622;0.000;0.000;2024-01-15T00:40:07;7.32;;;6.63;;
66707;SDS011;53622;0.000;0.000;2024-01-15T00:42:37;6.72;;;6.13;;
66707;SDS011;53622;0.000;0.000;2024-01-15T00:45:06;6.85;;;6.15;;
66707;SDS011;53622;0.000;0.000;2024-01-15T00:47:35;8.75;;;5.75;;
66707;SDS011;53622;0.000;0.000;2024-01-15T00:50:04;6.95;;;6.28;;
66707;SDS011;53622;0.000;0.000;2024-01-15T00:52:35;6.45;;;5.85;;
66707;SDS011;53622;0.000;0.000;2024-01-15T00:55:04;6.40;;;5.80;;
66707;SDS011;53622;0.000;0.000;2024-01-15T00:57:33;7.68;;;6.20;;
66707;SDS011;53622;0.000;0.000;2024-01-15T01:00:02;7.07;;;6.38;;
66707;SDS011;53622;0.000;0.000;2024-01-15T01:02:33;6.75;;;6.15;;
66707;SDS011;53622;0.000;0.000;2024-01-15T01:05:01;7.10;;;6.40;;
66707;SDS011;53622;0.000;0.000;2024-01-15T01:07:31;6.38;;;5.78;;
66707;SDS011;53622;0.000;0.000;2024-01-15T01:10:01;6.90;;;6.22;;
66707;SDS011;53622;0.000;0.000;2024-01-15T01:12:30;6.50;;;5.90;;
66707;SDS011;53622;0.000;0.000;2024-01-15T01:14:59;6.70;;;6.10;;
66707;SDS011;53622;0.000;0.000;2024-01-15T01:17:28;6.55;;;5.95;;
66707;SDS011;53622;0.000;0.000;2024-01-15T01:19:57;6.38;;;5.78;;
66707;SDS011;53622;0.000;0.000;2024-01-15T01:22:27;6.55;;;5.95;;
66707;SDS011;53622;0.000;0.000;2024-01-15T01:24:55;6.38;;;5.78;;
66707;SDS011;53622;0.000;0.000;2024-01-15T01:27:25;6.95;;;6.35;;
66707;SDS011;53622;0.000;0.000;2024-01-15T01:29:54;7.00;;;6.37;;
66707;SDS011;53622;0.000;0.000;2024-01-15T01:32:23;6.47;;;5.88;;
66707;SDS011;53622;0.000;0.000;2024-01-15T01:34:52;6.10;;;5.50;;
66707;SDS011;53622;0.000;0.000;2024-01-15T01:37:20;5.95;;;5.43;;
66707;SDS011;53622;0.000;0.000;2024-01-15T01:39:49;6.60;;;6.00;;
66707;SDS011;53622;0.000;0.000;2024-01-15T01:42:18;7.20;;;5.82;;
66707;SDS011;53622;0.000;0.000;2024-01-15T01:44:48;6.30;;;5.70;;
66707;SDS011;53622;0.000;0.000;2024-01-15T01:47:17;6.50;;;5.90;;
66707;SDS011;53622;0.000;0.000;2024-01-15T01:49:46;6.55;;;5.85;;
66707;SDS011;53622;0.000;0.000;2024-01-15T01:52:15;7.45;;;6.75;;
66707;SDS011;53622;0.000;0.000;2024-01-15T01:54:44;6.10;;;5.60;;
66707;SDS011;53622;0.000;0.000;2024-01-15T01:57:13;5.90;;;5.40;;
66707;SDS011;53622;0.000;0.000;2024-01-15T01:59:43;6.03;;;5.47;;
66707;SDS011;53622;0.000;0.000;2024-01-15T02:02:15;6.55;;;5.95;;
66707;SDS011;53622;0.000;0.000;2024-01-15T02:04:44;6.18;;;5.57;;
66707;SDS011;53622;0.000;0.000;2024-01-15T02:07:15;6.05;;;5.50;;
66707;SDS011;53622;0.000;0.000;2024-01-15T02:09:44;6.68;;;6.07;;
66707;SDS011;53622;0.000;0.000;2024-01-15T02:12:13;6.53;;;5.93;;
66707;SDS011;53622;0.000;0.000;2024-01-15T02:14:42;6.00;;;5.43;;
66707;SDS011;53622;0.000;0.000;2024-01-15T02:17:11;6.70;;;6.00;;
66707;SDS011;53622;0.000;0.000;2024-01-15T02:19:41;7.13;;;6.43;;
66707;SDS011;53622;0.000;0.000;2024-01-15T02:22:10;5.90;;;5.30;;
66707;SDS011;53622;0.000;0.000;2024-01-15T02:24:40;6.57;;;5.97;;
66707;SDS011;53622;0.000;0.000;2024-01-15T02:27:08;6.90;;;6.20;;
66707;SDS011;53622;0.000;0.000;2024-01-15T02:29:37;6.60;;;5.97;;
66707;SDS011;53622;0.000;0.000;2024-01-15T02:32:08;6.28;;;5.68;;
66707;SDS011;53622;0.000;0.000;2024-01-15T02:34:37;5.82;;;5.28;;
66707;SDS011;53622;0.000;0.000;2024-01-15T02:37:06;6.68;;;5.97;;
66707;SDS011;53622;0.000;0.000;2024-01-15T02:39:34;6.60;;;6.00;;
66707;SDS011;53622;0.000;0.000;2024-01-15T02:42:05;6.50;;;5.90;;
66707;SDS011;53622;0.000;0.000;2024-01-15T02:44:34;6.25;;;5.65;;
66707;SDS011;53622;0.000;0.000;2024-01-15T02:47:03;6.45;;;5.85;;
66707;SDS011;53622;0.000;0.000;2024-01-15T02:49:32;6.35;;;5.75;;
66707;SDS011;53622;0.000;0.000;2024-01-15T02:52:00;6.30;;;5.80;;
66707;SDS011;53622;0.000;0.000;2024-01-15T02:54:29;5.72;;;5.22;;
66707;SDS011;53622;0.000;0.000;2024-01-15T02:56:58;6.43;;;5.82;;
66707;SDS011;53622;0.000;0.000;2024-01-15T02:59:28;6.28;;;5.68;;
66707;SDS011;53622;0.000;0.000;2024-01-15T03:01:57;6.45;;;5.75;;
66707;SDS011;53622;0.000;0.000;2024-01-15T03:04:26;6.22;;;5.63;;
66707;SDS011;53622;0.000;0.000;2024-01-15T03:06:55;6.22;;;5.65;;
66707;SDS011;53622;0.000;0.000;2024-01-15T03:09:23;6.10;;;5.50;;
66707;SDS011;53622;0.000;0.000;2024-01-15T03:11:52;6.32;;;5.72;;
66707;SDS011;53622;0.000;0.000;2024-01-15T03:14:21;6.07;;;5.47;;
66707;SDS011;53622;0.000;0.000;2024-01-15T03:16:53;6.25;;;5.65;;
66707;SDS011;53622;0.000;0.000;2024-01-15T03:19:22;6.13;;;5.53;;
66707;SDS011;53622;0.000;0.000;2024-01-15T03:21:51;5.90;;;5.38;;
66707;SDS011;53622;0.000;0.000;2024-01-15T03:24:19;6.55;;;5.55;;
66707;SDS011;53622;0.000;0.000;2024-01-15T03:26:48;6.25;;;5.65;;
66707;SDS011;53622;0.000;0.000;2024-01-15T03:29:17;6.15;;;5.55;;
66707;SDS011;53622;0.000;0.000;2024-01-15T03:31:45;6.15;;;5.55;;
66707;SDS011;53622;0.000;0.000;2024-01-15T03:34:15;5.55;;;5.03;;
66707;SDS011;53622;0.000;0.000;2024-01-15T03:36:44;6.32;;;5.72;;
66707;SDS011;53622;0.000;0.000;2024-01-15T03:39:13;5.90;;;5.40;;
66707;SDS011;53622;0.000;0.000;2024-01-15T03:41:42;5.78;;;5.28;;
66707;SDS011;53622;0.000;0.000;2024-01-15T03:44:11;6.30;;;5.80;;
66707;SDS011;53622;0.000;0.000;2024-01-15T03:46:40;5.70;;;5.20;;
66707;SDS011;53622;0.000;0.000;2024-01-15T03:49:09;5.38;;;4.88;;
66707;SDS011;53622;0.000;0.000;2024-01-15T03:51:39;5.80;;;5.28;;
66707;SDS011;53622;0.000;0.000;2024-01-15T03:54:08;5.90;;;5.30;;
66707;SDS011;53622;0.000;0.000;2024-01-15T03:56:36;6.00;;;5.45;;
66707;SDS011;53622;0.000;0.000;2024-01-15T03:59:05;6.57;;;5.75;;
66707;SDS011;53622;0.000;0.000;2024-01-15T04:01:34;5.57;;;5.07;;
66707;SDS011;53622;0.000;0.000;2024-01-15T04:04:03;5.75;;;5.25;;
66707;SDS011;53622;0.000;0.000;2024-01-15T04:06:32;5.97;;;5.43;;
66707;SDS011;53622;0.000;0.000;2024-01-15T04:09:02;5.55;;;5.05;;
66707;SDS011;53622;0.000;0.000;2024-01-15T04:11:30;6.05;;;5.45;;
66707;SDS011;53622;0.000;0.000;2024-01-15T04:13:59;5.57;;;5.07;;
66707;SDS011;53622;0.000;0.000;2024-01-15T04:16:28;6.03;;;5.43;;
66707;SDS011;53622;0.000;0.000;2024-01-15T04:18:56;5.53;;;5.03;;
66707;SDS011;53622;0.000;0.000;2024-01-15T04:21:25;5.57;;;5.07;;
66707;SDS011;53622;0.000;0.000;2024-01-15T04:23:54;5.43;;;4.97;;
66707;SDS011;53622;0.000;0.000;2024-01-15T04:26:24;6.28;;;5.68;;
66707;SDS011;53622;0.000;0.000;2024-01-15T04:28:53;5.60;;;5.10;;
66707;SDS011;53622;0.000;0.000;2024-01-15T04:31:22;5.72;;;5.07;;
66707;SDS011;53622;0.000;0.000;2024-01-15T04:33:52;6.38;;;5.78;;
66707;SDS011;53622;0.000;0.000;2024-01-15T04:36:21;6.00;;;5.40;;
66707;SDS011;53622;0.000;0.000;2024-01-15T04:38:50;6.35;;;5.75;;
66707;SDS011;53622;0.000;0.000;2024-01-15T04:41:18;6.47;;;5.88;;
66707;SDS011;53622;0.000;0.000;2024-01-15T04:43:49;5.70;;;5.18;;
66707;SDS011;53622;0.000;0.000;2024-01-15T04:46:17;5.97;;;5.47;;
66707;SDS011;53622;0.000;0.000;2024-01-15T04:48:46;5.45;;;4.95;;
66707;SDS011;53622;0.000;0.000;2024-01-15T04:51:15;5.63;;;5.13;;
66707;SDS011;53622;0.000;0.000;2024-01-15T04:53:44;6.03;;;5.43;;
66707;SDS011;53622;0.000;0.000;2024-01-15T04:56:13;8.90;;;5.70;;
66707;SDS011;53622;0.000;0.000;2024-01-15T04:58:42;5.65;;;5.15;;
66707;SDS011;53622;0.000;0.000;2024-01-15T05:01:12;6.18;;;5.57;;
66707;SDS011;53622;0.000;0.000;2024-01-15T05:03:40;5.95;;;5.10;;
66707;SDS011;53622;0.000;0.000;2024-01-15T05:06:09;5.78;;;5.28;;
66707;SDS011;53622;0.000;0.000;2024-01-15T05:08:38;5.30;;;4.80;;
66707;SDS011;53622;0.000;0.000;2024-01-15T05:11:07;5.40;;;4.90;;
66707;SDS011;53622;0.000;0.000;2024-01-15T05:13:35;5.50;;;4.50;;
66707;SDS011;53622;0.000;0.000;2024-01-15T05:16:04;5.43;;;4.93;;
66707;SDS011;53622;0.000;0.000;2024-01-15T05:18:34;6.03;;;5.45;;
66707;SDS011;53622;0.000;0.000;2024-01-15T05:21:04;5.55;;;5.05;;
66707;SDS011;53622;0.000;0.000;2024-01-15T05:23:33;5.85;;;4.90;;
66707;SDS011;53622;0.000;0.000;2024-01-15T05:26:03;6.20;;;5.47;;
66707;SDS011;53622;0.000;0.000;2024-01-15T05:28:32;7.53;;;5.32;;
66707;SDS011;53622;0.000;0.000;2024-01-15T05:31:00;7.10;;;5.70;;
66707;SDS011;53622;0.000;0.000;2024-01-15T05:33:30;8.68;;;5.45;;
66707;SDS011;53622;0.000;0.000;2024-01-15T05:36:00;7.38;;;6.03;;
66707;SDS011;53622;0.000;0.000;2024-01-15T05:38:29;6.38;;;5.50;;
66707;SDS011;53622;0.000;0.000;2024-01-15T05:40:58;8.82;;;5.63;;
66707;SDS011;53622;0.000;0.000;2024-01-15T05:43:26;7.25;;;5.60;;
66707;SDS011;53622;0.000;0.000;2024-01-15T05:45:55;5.97;;;5.37;;
66707;SDS011;53622;0.000;0.000;2024-01-15T05:48:24;7.35;;;5.53;;
66707;SDS011;53622;0.000;0.000;2024-01-15T05:50:53;5.95;;;4.80;;
66707;SDS011;53622;0.000;0.000;2024-01-15T05:53:23;5.15;;;4.65;;
66707;SDS011;53622;0.000;0.000;2024-01-15T05:55:52;5.95;;;5.43;;
66707;SDS011;53622;0.000;0.000;2024-01-15T05:58:21;6.25;;;5.53;;
66707;SDS011;53622;0.000;0.000;2024-01-15T06:00:49;6.82;;;5.22;;
66707;SDS011;53622;0.000;0.000;2024-01-15T06:03:21;6.63;;;4.47;;
66707;SDS011;53622;0.000;0.000;2024-01-15T06:05:50;5.55;;;4.55;;
66707;SDS011;53622;0.000;0.000;2024-01-15T06:08:18;5.82;;;4.70;;
66707;SDS011;53622;0.000;0.000;2024-01-15T06:10:49;5.40;;;4.55;;
66707;SDS011;53622;0.000;0.000;2024-01-15T06:13:17;5.00;;;4.10;;
66707;SDS011;53622;0.000;0.000;2024-01-15T06:15:46;5.03;;;4.43;;
66707;SDS011;53622;0.000;0.000;2024-01-15T06:18:15;6.97;;;4.55;;
66707;SDS011;53622;0.000;0.000;2024-01-15T06:20:44;5.28;;;3.78;;
66707;SDS011;53622;0.000;0.000;2024-01-15T06:23:13;6.45;;;3.90;;
66707;SDS011;53622;0.000;0.000;2024-01-15T06:25:46;5.38;;;4.45;;
66707;SDS011;53622;0.000;0.000;2024-01-15T06:28:16;5.32;;;4.38;;
66707;SDS011;53622;0.000;0.000;2024-01-15T06:30:45;4.85;;;3.88;;
66707;SDS011;53622;0.000;0.000;2024-01-15T06:33:15;6.32;;;4.18;;
66707;SDS011;53622;0.000;0.000;2024-01-15T06:35:44;6.05;;;3.97;;
66707;SDS011;53622;0.000;0.000;2024-01-15T06:38:12;7.30;;;4.28;;
66707;SDS011;53622;0.000;0.000;2024-01-15T06:40:43;7.15;;;3.80;;
66707;SDS011;53622;0.000;0.000;2024-01-15T06:43:20;10.48;;;3.97;;
66707;SDS011;53622;0.000;0.000;2024-01-15T06:45:49;6.72;;;4.18;;
66707;SDS011;53622;0.000;0.000;2024-01-15T06:48:18;4.82;;;4.30;;
66707;SDS011;53622;0.000;0.000;2024-01-15T06:50:47;6.90;;;4.53;;
66707;SDS011;53622;0.000;0.000;2024-01-15T06:53:16;6.25;;;4.30;;
66707;SDS011;53622;0.000;0.000;2024-01-15T06:55:44;8.40;;;4.35;;
66707;SDS011;53622;0.000;0.000;2024-01-15T06:58:13;4.70;;;4.07;;
66707;SDS011;53622;0.000;0.000;2024-01-15T07:00:43;7.40;;;4.00;;
66707;SDS011;53622;0.000;0.000;2024-01-15T07:03:12;7.53;;;3.90;;
66707;SDS011;53622;0.000;0.000;2024-01-15T07:05:41;5.70;;;4.50;;
66707;SDS011;53622;0.000;0.000;2024-01-15T07:08:10;5.97;;;4.07;;
66707;SDS011;53622;0.000;0.000;2024-01-15T07:10:38;5.80;;;4.38;;
66707;SDS011;53622;0.000;0.000;2024-01-15T07:13:08;6.50;;;4.43;;
66707;SDS011;53622;0.000;0.000;2024-01-15T07:15:37;6.43;;;4.40;;
66707;SDS011;53622;0.000;0.000;2024-01-15T07:18:07;5.07;;;4.57;;
66707;SDS011;53622;0.000;0.000;2024-01-15T07:20:36;6.32;;;4.45;;
66707;SDS011;53622;0.000;0.000;2024-01-15T07:23:05;7.22;;;4.50;;
66707;SDS011;53622;0.000;0.000;2024-01-15T07:25:34;5.57;;;4.05;;
66707;SDS011;53622;0.000;0.000;2024-01-15T07:28:04;6.05;;;4.40;;
66707;SDS011;53622;0.000;0.000;2024-01-15T07:30:32;5.15;;;4.30;;
66707;SDS011;53622;0.000;0.000;2024-01-15T07:33:01;6.43;;;4.30;;
66707;SDS011;53622;0.000;0.000;2024-01-15T07:35:32;5.10;;;4.60;;
66707;SDS011;53622;0.000;0.000;2024-01-15T07:38:01;5.20;;;4.22;;
66707;SDS011;53622;0.000;0.000;2024-01-15T07:40:30;5.00;;;3.97;;
66707;SDS011;53622;0.000;0.000;2024-01-15T07:42:58;5.03;;;4.03;;
66707;SDS011;53622;0.000;0.000;2024-01-15T07:45:27;5.60;;;4.43;;
66707;SDS011;53622;0.000;0.000;2024-01-15T07:47:56;4.97;;;4.57;;
66707;SDS011;53622;0.000;0.000;2024-01-15T07:50:25;6.22;;;4.40;;
66707;SDS011;53622;0.000;0.000;2024-01-15T07:52:55;5.15;;;4.28;;
66707;SDS011;53622;0.000;0.000;2024-01-15T07:55:23;5.20;;;4.50;;
66707;SDS011;53622;0.000;0.000;2024-01-15T07:57:52;7.15;;;4.95;;
66707;SDS011;53622;0.000;0.000;2024-01-15T08:00:41;5.30;;;4.45;;
66707;SDS011;53622;0.000;0.000;2024-01-15T08:03:10;6.18;;;4.50;;
66707;SDS011;53622;0.000;0.000;2024-01-15T08:05:39;4.88;;;4.20;;
66707;SDS011;53622;0.000;0.000;2024-01-15T08:08:09;5.50;;;4.25;;
66707;SDS011;53622;0.000;0.000;2024-01-15T08:10:38;6.28;;;4.13;;
66707;SDS011;53622;0.000;0.000;2024-01-15T08:13:07;5.65;;;4.38;;
66707;SDS011;53622;0.000;0.000;2024-01-15T08:15:36;4.88;;;4.38;;
66707;SDS011;53622;0.000;0.000;2024-01-15T08:18:05;4.30;;;3.72;;
66707;SDS011;53622;0.000;0.000;2024-01-15T08:20:34;4.20;;;3.80;;
66707;SDS011;53622;0.000;0.000;2024-01-15T08:23:02;5.10;;;4.60;;
66707;SDS011;53622;0.000;0.000;2024-01-15T08:25:33;4.30;;;3.90;;
66707;SDS011;53622;0.000;0.000;2024-01-15T08:28:02;5.60;;;4.18;;
66707;SDS011;53622;0.000;0.000;2024-01-15T08:30:31;9.60;;;4.60;;
66707;SDS011;53622;0.000;0.000;2024-01-15T08:33:00;5.72;;;4.25;;
66707;SDS011;53622;0.000;0.000;2024-01-15T08:35:37;4.38;;;3.97;;
66707;SDS011;53622;0.000;0.000;2024-01-15T08:38:06;5.72;;;4.22;;
66707;SDS011;53622;0.000;0.000;2024-01-15T08:40:36;4.53;;;4.07;;
66707;SDS011;53622;0.000;0.000;2024-01-15T08:43:04;6.47;;;4.75;;
66707;SDS011;53622;0.000;0.000;2024-01-15T08:45:33;6.35;;;3.90;;
66707;SDS011;53622;0.000;0.000;2024-01-15T08:48:03;5.80;;;3.67;;
66707;SDS011;53622;0.000;0.000;2024-01-15T08:50:32;4.20;;;3.78;;
66707;SDS011;53622;0.000;0.000;2024-01-15T08:53:01;5.47;;;4.10;;
66707;SDS011;53622;0.000;0.000;2024-01-15T08:55:29;4.82;;;4.10;;
66707;SDS011;53622;0.000;0.000;2024-01-15T08:57:59;4.90;;;4.22;;
66707;SDS011;53622;0.000;0.000;2024-01-15T09:00:29;6.35;;;4.15;;
66707;SDS011;53622;0.000;0.000;2024-01-15T09:02:57;4.47;;;4.00;;
66707;SDS011;53622;0.000;0.000;2024-01-15T09:05:26;3.83;;;3.47;;
66707;SDS011;53622;0.000;0.000;2024-01-15T09:07:55;4.15;;;3.75;;
66707;SDS011;53622;0.000;0.000;2024-01-15T09:10:24;4.13;;;3.72;;
66707;SDS011;53622;0.000;0.000;2024-01-15T09:12:53;3.95;;;3.50;;
66707;SDS011;53622;0.000;0.000;2024-01-15T09:15:23;4.43;;;3.95;;
66707;SDS011;53622;0.000;0.000;2024-01-15T09:17:52;4.50;;;4.10;;
66707;SDS011;53622;0.000;0.000;2024-01-15T09:20:21;4.57;;;3.50;;
66707;SDS011;53622;0.000;0.000;2024-01-15T09:22:49;4.47;;;3.90;;
66707;SDS011;53622;0.000;0.000;2024-01-15T09:25:18;4.90;;;3.80;;
66707;SDS011;53622;0.000;0.000;2024-01-15T09:27:47;4.78;;;3.92;;
66707;SDS011;53622;0.000;0.000;2024-01-15T09:30:16;5.03;;;3.85;;
66707;SDS011;53622;0.000;0.000;2024-01-15T09:32:46;5.50;;;4.18;;
66707;SDS011;53622;0.000;0.000;2024-01-15T09:35:15;4.18;;;3.78;;
66707;SDS011;53622;0.000;0.000;2024-01-15T09:37:44;5.07;;;4.07;;
66707;SDS011;53622;0.000;0.000;2024-01-15T09:40:14;3.83;;;3.50;;
66707;SDS011;53622;0.000;0.000;2024-01-15T09:42:44;4.28;;;3.88;;
66707;SDS011;53622;0.000;0.000;2024-01-15T09:45:13;3.97;;;3.55;;
66707;SDS011;53622;0.000;0.000;2024-01-15T09:47:43;4.55;;;3.97;;
66707;SDS011;53622;0.000;0.000;2024-01-15T09:50:14;5.75;;;3.80;;
66707;SDS011;53622;0.000;0.000;2024-01-15T09:52:43;4.25;;;3.85;;
66707;SDS011;53622;0.000;0.000;2024-01-15T09:55:13;4.80;;;4.38;;
66707;SDS011;53622;0.000;0.000;2024-01-15T09:57:43;4.10;;;3.70;;
66707;SDS011;53622;0.000;0.000;2024-01-15T10:00:14;4.40;;;4.00;;
66707;SDS011;53622;0.000;0.000;2024-01-15T10:02:46;5.22;;;4.22;;
66707;SDS011;53622;0.000;0.000;2024-01-15T10:05:17;4.25;;;3.85;;
66707;SDS011;53622;0.000;0.000;2024-01-15T10:07:46;4.40;;;4.00;;
66707;SDS011;53622;0.000;0.000;2024-01-15T10:10:17;4.30;;;3.90;;
66707;SDS011;53622;0.000;0.000;2024-01-15T10:12:46;5.00;;;4.18;;
66707;SDS011;53622;0.000;0.000;2024-01-15T10:15:14;4.78;;;3.78;;
66707;SDS011;53622;0.000;0.000;2024-01-15T10:17:44;4.20;;;3.80;;
66707;SDS011;53622;0.000;0.000;2024-01-15T10:20:13;5.97;;;4.32;;
66707;SDS011;53622;0.000;0.000;2024-01-15T10:22:44;9.25;;;4.20;;
66707;SDS011;53622;0.000;0.000;2024-01-15T10:25:14;13.38;;;5.13;;
66707;SDS011;53622;0.000;0.000;2024-01-15T10:27:43;9.70;;;4.72;;
66707;SDS011;53622;0.000;0.000;2024-01-15T10:30:12;9.98;;;4.80;;
66707;SDS011;53622;0.000;0.000;2024-01-15T10:32:44;6.82;;;4.47;;
66707;SDS011;53622;0.000;0.000;2024-01-15T10:35:26;9.18;;;5.30;;
66707;SDS011;53622;0.000;0.000;2024-01-15T10:37:58;6.68;;;5.20;;
66707;SDS011;53622;0.000;0.000;2024-01-15T10:40:27;7.20;;;5.05;;
66707;SDS011;53622;0.000;0.000;2024-01-15T10:42:56;7.85;;;4.82;;
66707;SDS011;53622;0.000;0.000;2024-01-15T10:45:25;6.32;;;4.88;;
66707;SDS011;53622;0.000;0.000;2024-01-15T10:47:54;4.93;;;4.50;;
66707;SDS011;53622;0.000;0.000;2024-01-15T10:50:26;6.38;;;5.70;;
66707;SDS011;53622;0.000;0.000;2024-01-15T10:52:55;7.70;;;5.10;;
66707;SDS011;53622;0.000;0.000;2024-01-15T10:55:26;6.25;;;5.20;;
66707;SDS011;53622;0.000;0.000;2024-01-15T10:57:55;5.28;;;4.78;;
66707;SDS011;53622;0.000;0.000;2024-01-15T11:00:25;8.95;;;5.00;;
66707;SDS011;53622;0.000;0.000;2024-01-15T11:02:55;5.60;;;5.10;;
66707;SDS011;53622;0.000;0.000;2024-01-15T11:05:25;6.50;;;4.88;;
66707;SDS011;53622;0.000;0.000;2024-01-15T11:07:54;6.05;;;5.28;;
66707;SDS011;53622;0.000;0.000;2024-01-15T11:10:41;6.80;;;5.40;;
66707;SDS011;53622;0.000;0.000;2024-01-15T11:13:13;6.50;;;4.97;;
66707;SDS011;53622;0.000;0.000;2024-01-15T11:15:59;5.45;;;4.85;;
66707;SDS011;53622;0.000;0.000;2024-01-15T11:18:29;5.53;;;4.90;;
66707;SDS011;53622;0.000;0.000;2024-01-15T11:23:51;6.88;;;4.78;;
66707;SDS011;53622;0.000;0.000;2024-01-15T11:26:32;4.75;;;4.35;;
66707;SDS011;53622;0.000;0.000;2024-01-15T11:29:03;5.55;;;4.63;;
66707;SDS011;53622;0.000;0.000;2024-01-15T11:37:26;5.55;;;4.93;;
66707;SDS011;53622;0.000;0.000;2024-01-15T11:40:00;5.18;;;4.68;;
66707;SDS011;53622;0.000;0.000;2024-01-15T11:42:32;5.15;;;4.65;;
66707;SDS011;53622;0.000;0.000;2024-01-15T11:45:01;4.50;;;4.10;;
66707;SDS011;53622;0.000;0.000;2024-01-15T11:47:54;7.60;;;4.95;;
66707;SDS011;53622;0.000;0.000;2024-01-15T11:50:41;5.03;;;4.55;;
66707;SDS011;53622;0.000;0.000;2024-01-15T11:53:13;4.93;;;4.43;;
66707;SDS011;53622;0.000;0.000;2024-01-15T11:55:49;5.30;;;4.55;;
66707;SDS011;53622;0.000;0.000;2024-01-15T11:58:21;4.65;;;4.25;;
66707;SDS011;53622;0.000;0.000;2024-01-15T12:00:51;5.28;;;4.78;;
66707;SDS011;53622;0.000;0.000;2024-01-15T12:03:21;4.70;;;4.30;;
66707;SDS011;53622;0.000;0.000;2024-01-15T12:05:51;5.55;;;4.57;;
66707;SDS011;53622;0.000;0.000;2024-01-15T12:08:21;4.95;;;4.45;;
66707;SDS011;53622;0.000;0.000;2024-01-15T12:10:50;5.63;;;5.05;;
66707;SDS011;53622;0.000;0.000;2024-01-15T12:13:20;5.00;;;4.50;;
66707;SDS011;53622;0.000;0.000;2024-01-15T12:15:50;5.20;;;4.70;;
66707;SDS011;53622;0.000;0.000;2024-01-15T12:18:19;5.35;;;4.85;;
66707;SDS011;53622;0.000;0.000;2024-01-15T12:20:48;5.38;;;4.90;;
66707;SDS011;53622;0.000;0.000;2024-01-15T12:23:17;5.30;;;4.80;;
66707;SDS011;53622;0.000;0.000;2024-01-15T12:25:45;5.25;;;4.75;;
66707;SDS011;53622;0.000;0.000;2024-01-15T12:28:15;4.47;;;4.07;;
66707;SDS011;53622;0.000;0.000;2024-01-15T12:30:46;5.00;;;4.50;;
66707;SDS011;53622;0.000;0.000;2024-01-15T12:33:18;5.18;;;4.68;;
66707;SDS011;53622;0.000;0.000;2024-01-15T12:35:48;4.72;;;4.20;;
66707;SDS011;53622;0.000;0.000;2024-01-15T12:38:18;5.78;;;4.50;;
66707;SDS011;53622;0.000;0.000;2024-01-15T12:40:48;4.78;;;4.38;;
66707;SDS011;53622;0.000;0.000;2024-01-15T12:43:17;4.60;;;4.20;;
66707;SDS011;53622;0.000;0.000;2024-01-15T12:45:47;4.47;;;4.05;;
66707;SDS011;53622;0.000;0.000;2024-01-15T12:48:16;4.20;;;3.80;;
66707;SDS011;53622;0.000;0.000;2024-01-15T12:50:46;4.88;;;4.15;;
66707;SDS011;53622;0.000;0.000;2024-01-15T12:53:15;4.55;;;4.13;;
66707;SDS011;53622;0.000;0.000;2024-01-15T12:55:44;4.50;;;4.10;;
66707;SDS011;53622;0.000;0.000;2024-01-15T12:58:13;4.20;;;3.80;;
66707;SDS011;53622;0.000;0.000;2024-01-15T13:00:47;4.70;;;4.30;;
66707;SDS011;53622;0.000;0.000;2024-01-15T13:03:16;4.25;;;3.90;;
66707;SDS011;53622;0.000;0.000;2024-01-15T13:05:45;4.75;;;4.25;;
66707;SDS011;53622;0.000;0.000;2024-01-15T13:08:14;4.70;;;4.00;;
66707;SDS011;53622;0.000;0.000;2024-01-15T13:10:43;4.57;;;4.07;;
66707;SDS011;53622;0.000;0.000;2024-01-15T13:13:12;4.40;;;4.00;;
66707;SDS011;53622;0.000;0.000;2024-01-15T13:15:40;4.55;;;4.15;;
66707;SDS011;53622;0.000;0.000;2024-01-15T13:18:10;4.35;;;3.95;;
66707;SDS011;53622;0.000;0.000;2024-01-15T13:20:39;5.20;;;4.07;;
66707;SDS011;53622;0.000;0.000;2024-01-15T13:23:08;4.40;;;4.00;;
66707;SDS011;53622;0.000;0.000;2024-01-15T13:25:38;4.15;;;3.75;;
66707;SDS011;53622;0.000;0.000;2024-01-15T13:28:07;4.70;;;3.88;;
66707;SDS011;53622;0.000;0.000;2024-01-15T13:30:36;3.75;;;3.45;;
66707;SDS011;53622;0.000;0.000;2024-01-15T13:33:05;4.30;;;3.60;;
66707;SDS011;53622;0.000;0.000;2024-01-15T13:35:37;4.20;;;3.42;;
66707;SDS011;53622;0.000;0.000;2024-01-15T13:38:05;3.80;;;3.50;;
66707;SDS011;53622;0.000;0.000;2024-01-15T13:40:35;3.70;;;3.22;;
66707;SDS011;53622;0.000;0.000;2024-01-15T13:43:04;3.85;;;3.55;;
66707;SDS011;53622;0.000;0.000;2024-01-15T13:45:35;3.83;;;3.53;;
66707;SDS011;53622;0.000;0.000;2024-01-15T13:48:04;3.85;;;3.55;;
66707;SDS011;53622;0.000;0.000;2024-01-15T13:50:36;4.32;;;3.40;;
66707;SDS011;53622;0.000;0.000;2024-01-15T13:53:05;3.60;;;3.30;;
66707;SDS011;53622;0.000;0.000;2024-01-15T13:55:35;4.25;;;3.50;;
66707;SDS011;53622;0.000;0.000;2024-01-15T13:58:03;3.72;;;3.42;;
66707;SDS011;53622;0.000;0.000;2024-01-15T14:00:33;3.90;;;3.60;;
66707;SDS011;53622;0.000;0.000;2024-01-15T14:03:01;3.38;;;3.10;;
66707;SDS011;53622;0.000;0.000;2024-01-15T14:05:31;3.60;;;3.30;;
66707;SDS011;53622;0.000;0.000;2024-01-15T14:08:02;3.47;;;3.17;;
66707;SDS011;53622;0.000;0.000;2024-01-15T14:10:31;3.70;;;3.40;;
66707;SDS011;53622;0.000;0.000;2024-01-15T14:12:59;3.60;;;3.30;;
66707;SDS011;53622;0.000;0.000;2024-01-15T14:15:29;3.72;;;3.42;;
66707;SDS011;53622;0.000;0.000;2024-01-15T14:17:57;3.28;;;2.97;;
66707;SDS011;53622;0.000;0.000;2024-01-15T14:20:28;3.80;;;3.50;;
66707;SDS011;53622;0.000;0.000;2024-01-15T14:22:56;3.60;;;3.30;;
66707;SDS011;53622;0.000;0.000;2024-01-15T14:25:26;3.50;;;3.20;;
66707;SDS011;53622;0.000;0.000;2024-01-15T14:27:55;3.45;;;3.15;;
66707;SDS011;53622;0.000;0.000;2024-01-15T14:30:24;3.15;;;2.85;;
66707;SDS011;53622;0.000;0.000;2024-01-15T14:32:53;3.47;;;3.17;;
66707;SDS011;53622;0.000;0.000;2024-01-15T14:35:22;3.35;;;3.05;;
66707;SDS011;53622;0.000;0.000;2024-01-15T14:37:50;3.55;;;3.22;;
66707;SDS011;53622;0.000;0.000;2024-01-15T14:40:19;3.38;;;3.08;;
66707;SDS011;53622;0.000;0.000;2024-01-15T14:42:49;3.47;;;2.70;;
66707;SDS011;53622;0.000;0.000;2024-01-15T14:45:18;3.58;;;3.20;;
66707;SDS011;53622;0.000;0.000;2024-01-15T14:47:47;3.53;;;3.20;;
66707;SDS011;53622;0.000;0.000;2024-01-15T14:50:16;3.50;;;3.20;;
66707;SDS011;53622;0.000;0.000;2024-01-15T14:52:45;3.58;;;3.20;;
66707;SDS011;53622;0.000;0.000;2024-01-15T14:55:14;3.00;;;2.70;;
66707;SDS011;53622;0.000;0.000;2024-01-15T14:57:42;3.03;;;2.83;;
66707;SDS011;53622;0.000;0.000;2024-01-15T15:00:13;2.90;;;2.70;;
66707;SDS011;53622;0.000;0.000;2024-01-15T15:02:44;3.00;;;2.70;;
66707;SDS011;53622;0.000;0.000;2024-01-15T15:05:12;6.85;;;2.83;;
66707;SDS011;53622;0.000;0.000;2024-01-15T15:07:44;6.28;;;3.45;;
66707;SDS011;53622;0.000;0.000;2024-01-15T15:10:12;14.18;;;3.72;;
66707;SDS011;53622;0.000;0.000;2024-01-15T15:12:41;14.77;;;3.78;;
66707;SDS011;53622;0.000;0.000;2024-01-15T15:15:10;14.25;;;4.30;;
66707;SDS011;53622;0.000;0.000;2024-01-15T15:17:47;10.68;;;3.88;;
66707;SDS011;53622;0.000;0.000;2024-01-15T15:20:16;12.80;;;4.80;;
66707;SDS011;53622;0.000;0.000;2024-01-15T15:22:46;12.80;;;5.50;;